Time;durP1;ratioP1;P1;durP2;ratioP2;P2;SDS_P1;SDS_P2;PMS_P1;PMS_P2;Temp;Humidity;BMP_temperature;BMP_pressure;BME280_temperature;BME280_humidity;BME280_pressure;Samples;Min_cycle;Max_cycle;Signal;HPM_P1;HPM_P2
2021/09/28 00:00:02;;;;;;;11.13;7.32;;;;;;;21.50;76.52;100414.69;4997615;28;20490;-71
2021/09/28 00:02:30;;;;;;;10.15;6.80;;;;;;;21.44;76.50;100418.00;4997853;28;20353;-71
2021/09/28 00:04:56;;;;;;;9.45;7.63;;;;;;;21.45;76.67;100419.59;4997687;28;20128;-71
2021/09/28 00:07:24;;;;;;;11.50;7.50;;;;;;;21.48;76.56;100423.63;4997639;28;20121;-71
2021/09/28 00:09:55;;;;;;;10.73;7.53;;;;;;;21.48;76.56;100417.16;4998243;28;20057;-72
2021/09/28 00:12:23;;;;;;;10.57;7.57;;;;;;;21.48;76.87;100417.97;4997797;28;20411;-71
2021/09/28 00:14:49;;;;;;;12.93;8.20;;;;;;;21.52;76.77;100412.22;4997683;28;20030;-71
2021/09/28 00:17:17;;;;;;;13.82;7.43;;;;;;;21.59;76.50;100409.28;4997038;28;20388;-72
2021/09/28 00:19:43;;;;;;;13.75;8.27;;;;;;;21.64;75.80;100414.44;4997475;28;20057;-71
2021/09/28 00:22:12;;;;;;;13.88;7.00;;;;;;;21.68;75.59;100412.34;4997473;28;20061;-71
2021/09/28 00:24:37;;;;;;;9.57;6.97;;;;;;;21.59;76.20;100410.06;4997328;28;20030;-72
2021/09/28 00:27:03;;;;;;;11.23;7.32;;;;;;;21.58;76.74;100410.50;4997370;28;20033;-72
2021/09/28 00:29:29;;;;;;;7.32;6.60;;;;;;;21.52;76.63;100403.72;4997625;28;20095;-71
2021/09/28 00:32:00;;;;;;;9.95;7.18;;;;;;;21.51;76.74;100402.94;4997286;28;20116;-72
2021/09/28 00:34:31;;;;;;;13.55;7.20;;;;;;;21.53;76.72;100391.19;4997325;28;20107;-72
2021/09/28 00:36:57;;;;;;;12.07;7.13;;;;;;;21.53;76.45;100385.53;4997173;28;20025;-72
2021/09/28 00:39:28;;;;;;;12.57;6.85;;;;;;;21.52;76.60;100383.91;4997231;28;20128;-71
2021/09/28 00:41:56;;;;;;;11.98;6.97;;;;;;;21.48;76.81;100378.31;4997380;28;20076;-72
2021/09/28 00:44:43;;;;;;;9.65;7.35;;;;;;;21.48;76.74;100377.53;4996965;28;20025;-72
2021/09/28 00:47:10;;;;;;;13.50;7.97;;;;;;;21.44;77.03;100371.94;5014966;28;20026;-71
2021/09/28 00:49:43;;;;;;;16.20;8.45;;;;;;;21.42;77.51;100375.19;5015154;28;20079;-72
2021/09/28 00:52:14;;;;;;;11.80;7.35;;;;;;;21.40;77.68;100369.16;5014560;28;20033;-71
2021/09/28 00:54:39;;;;;;;18.67;8.48;;;;;;;21.42;77.58;100374.41;5014555;28;20376;-72
2021/09/28 00:57:09;;;;;;;8.07;6.30;;;;;;;21.40;77.59;100371.97;4980913;28;20036;-72
2021/09/28 00:59:36;;;;;;;8.45;6.90;;;;;;;21.38;77.32;100368.81;4996774;28;20045;-72
2021/09/28 01:02:03;;;;;;;9.35;7.05;;;;;;;21.37;76.83;100360.75;5014098;28;20030;-72
2021/09/28 01:04:31;;;;;;;10.43;6.80;;;;;;;21.35;77.44;100351.88;4996627;28;20116;-72
2021/09/28 01:07:02;;;;;;;10.82;6.40;;;;;;;21.30;77.74;100347.50;4996331;28;20041;-72
2021/09/28 01:09:28;;;;;;;7.78;6.97;;;;;;;21.24;77.58;100345.59;4996702;28;20040;-72
2021/09/28 01:11:58;;;;;;;13.90;7.82;;;;;;;21.24;77.79;100349.22;4997191;28;20064;-71
2021/09/28 01:14:23;;;;;;;11.00;6.97;;;;;;;21.15;78.01;100343.34;5014221;28;20468;-72
2021/09/28 01:16:49;;;;;;;10.98;6.85;;;;;;;21.11;77.97;100343.38;4996585;28;20168;-72
2021/09/28 01:19:14;;;;;;;12.48;6.97;;;;;;;21.13;77.69;100337.28;4996435;28;20033;-72
2021/09/28 01:21:42;;;;;;;9.88;7.68;;;;;;;21.14;77.63;100341.72;4997000;28;20061;-72
2021/09/28 01:24:08;;;;;;;11.90;6.72;;;;;;;21.12;77.76;100344.19;4996630;28;20034;-72
2021/09/28 01:26:37;;;;;;;12.15;7.28;;;;;;;21.01;78.17;100337.91;4996437;28;20123;-72
2021/09/28 01:29:09;;;;;;;11.02;6.80;;;;;;;20.97;78.27;100343.63;4995841;28;20116;-72
2021/09/28 01:31:40;;;;;;;11.10;7.45;;;;;;;20.88;78.69;100341.38;4997474;28;20034;-72
2021/09/28 01:34:07;;;;;;;13.55;7.47;;;;;;;20.90;78.48;100336.06;5013513;28;20056;-71
2021/09/28 01:36:35;;;;;;;11.75;7.20;;;;;;;20.82;78.71;100337.41;4996294;28;20026;-72
2021/09/28 01:39:01;;;;;;;13.27;7.25;;;;;;;20.89;78.02;100334.47;4996833;28;20384;-71
2021/09/28 01:41:26;;;;;;;8.73;7.78;;;;;;;20.83;78.64;100339.03;4995999;28;20030;-71
2021/09/28 01:44:08;;;;;;;11.05;7.28;;;;;;;20.80;78.69;100325.75;4996218;28;20112;-71
2021/09/28 01:46:36;;;;;;;8.63;7.40;;;;;;;20.84;78.74;100334.97;4996440;28;20072;-72
2021/09/28 01:49:05;;;;;;;8.18;6.90;;;;;;;20.78;78.90;100333.06;4996329;28;20603;-72
2021/09/28 01:51:34;;;;;;;13.90;7.53;;;;;;;20.63;79.72;100318.34;4996188;28;20087;-72
2021/09/28 01:54:02;;;;;;;9.07;7.72;;;;;;;20.69;80.38;100335.63;4996928;28;20135;-72
2021/09/28 01:56:28;;;;;;;12.85;8.02;;;;;;;20.76;80.16;100335.50;4996049;28;20033;-71
2021/09/28 01:58:59;;;;;;;13.15;7.55;;;;;;;20.75;79.82;100326.22;4996710;28;20167;-71
2021/09/28 02:01:28;;;;;;;10.77;7.80;;;;;;;20.71;79.93;100327.50;4996048;28;20030;-71
2021/09/28 02:03:54;;;;;;;12.32;7.43;;;;;;;20.70;80.14;100329.53;4996460;28;20037;-72
2021/09/28 02:06:23;;;;;;;11.95;7.65;;;;;;;20.74;79.83;100321.81;4980180;28;20385;-72
2021/09/28 02:08:53;;;;;;;16.02;7.70;;;;;;;20.78;78.86;100308.41;4996569;28;20029;-71
2021/09/28 02:11:20;;;;;;;8.77;6.70;;;;;;;20.66;79.04;100300.50;5013892;28;20025;-71
2021/09/28 02:13:45;;;;;;;10.40;7.45;;;;;;;20.67;79.29;100302.13;4996428;28;20033;-72
2021/09/28 02:16:13;;;;;;;9.32;6.95;;;;;;;20.61;79.18;100304.66;4996195;28;20475;-72
2021/09/28 02:18:39;;;;;;;11.25;7.25;;;;;;;20.67;78.77;100304.97;4996385;28;20129;-72
2021/09/28 02:21:05;;;;;;;11.18;6.90;;;;;;;20.43;79.03;100281.47;4980162;28;20094;-71
2021/09/28 02:23:33;;;;;;;10.73;6.75;;;;;;;20.50;79.84;100306.03;4995824;28;20400;-71
2021/09/28 02:25:59;;;;;;;15.20;6.70;;;;;;;20.47;80.00;100292.78;4996127;28;20439;-71
2021/09/28 02:28:24;;;;;;;10.45;7.40;;;;;;;20.46;80.40;100299.63;4996192;28;20117;-72
2021/09/28 02:30:50;;;;;;;6.93;6.13;;;;;;;20.43;80.58;100301.25;4995921;28;20469;-71
2021/09/28 02:33:18;;;;;;;12.80;7.93;;;;;;;20.44;80.72;100293.59;4995708;28;20053;-72
2021/09/28 02:35:46;;;;;;;12.13;7.40;;;;;;;20.44;80.04;100296.41;4995120;28;20061;-72
2021/09/28 02:38:15;;;;;;;8.80;6.60;;;;;;;20.42;80.71;100286.34;4995911;28;20033;-71
2021/09/28 02:40:43;;;;;;;12.23;9.55;;;;;;;20.42;80.88;100286.34;4995739;28;20121;-71
2021/09/28 02:43:09;;;;;;;18.45;16.55;;;;;;;20.42;80.91;100286.34;5016686;28;20057;-72
2021/09/28 02:45:34;;;;;;;26.38;19.40;;;;;;;20.44;80.70;100274.59;4999146;28;20054;-72
2021/09/28 02:48:05;;;;;;;32.05;25.17;;;;;;;20.43;81.08;100278.66;4999797;28;20361;-72
2021/09/28 02:50:37;;;;;;;81.53;62.00;;;;;;;20.38;81.32;100268.63;4999426;28;20038;-72
2021/09/28 02:53:03;;;;;;;132.23;93.65;;;;;;;20.38;81.05;100262.97;4999076;28;20029;-72
2021/09/28 02:55:28;;;;;;;117.68;82.93;;;;;;;20.44;80.69;100265.31;4999020;28;20030;-72
2021/09/28 02:57:57;;;;;;;54.53;39.30;;;;;;;20.40;80.92;100259.75;4999272;28;20041;-72
2021/09/28 03:00:26;;;;;;;35.10;29.00;;;;;;;20.42;80.41;100258.09;4998941;28;20030;-72
2021/09/28 03:02:52;;;;;;;23.48;20.92;;;;;;;20.38;80.69;100251.69;4998941;28;20038;-71
2021/09/28 03:05:22;;;;;;;35.35;31.52;;;;;;;20.36;81.12;100259.81;4998831;28;20088;-72
2021/09/28 03:07:50;;;;;;;43.35;38.63;;;;;;;20.31;81.30;100251.81;4999660;28;20519;-72
2021/09/28 03:10:16;;;;;;;33.03;29.65;;;;;;;20.26;81.91;100255.13;4999124;28;20502;-72
2021/09/28 03:12:41;;;;;;;31.85;24.15;;;;;;;20.30;82.30;100258.69;4999136;28;20053;-71
2021/09/28 03:15:07;;;;;;;21.30;18.90;;;;;;;20.32;82.21;100253.41;4999102;28;20527;-72
2021/09/28 03:17:35;;;;;;;25.35;16.90;;;;;;;20.41;81.43;100262.13;4998684;28;20029;-72
2021/09/28 03:20:04;;;;;;;17.00;11.02;;;;;;;20.36;82.42;100253.34;4998650;28;20044;-71
2021/09/28 03:22:35;;;;;;;15.05;11.32;;;;;;;20.31;82.56;100248.97;5016247;28;20084;-72
2021/09/28 03:25:05;;;;;;;14.20;10.15;;;;;;;20.33;82.76;100249.34;4998224;28;20026;-71
2021/09/28 03:27:31;;;;;;;13.38;9.73;;;;;;;20.30;82.24;100260.72;4998577;28;20034;-72
2021/09/28 03:29:57;;;;;;;17.55;10.10;;;;;;;20.31;82.69;100251.81;4998748;28;20038;-72
2021/09/28 03:32:23;;;;;;;14.88;10.07;;;;;;;20.33;82.07;100255.00;4998303;28;20451;-72
2021/09/28 03:34:54;;;;;;;16.65;10.82;;;;;;;20.31;82.11;100262.31;4997959;28;20088;-72
2021/09/28 03:37:22;;;;;;;13.45;10.52;;;;;;;20.32;82.38;100266.72;4998339;28;20025;-72
2021/09/28 03:39:50;;;;;;;15.82;9.68;;;;;;;20.29;82.21;100257.06;4998607;28;20464;-72
2021/09/28 03:42:15;;;;;;;13.02;9.98;;;;;;;20.29;82.42;100268.38;4998181;28;20026;-71
2021/09/28 03:44:43;;;;;;;16.85;9.55;;;;;;;20.28;82.82;100269.59;4998317;28;20037;-72
2021/09/28 03:47:11;;;;;;;16.83;9.98;;;;;;;20.27;82.91;100265.19;4997882;28;20032;-71
2021/09/28 03:49:37;;;;;;;16.58;10.55;;;;;;;20.25;82.71;100270.47;4997893;28;20030;-72
2021/09/28 03:52:02;;;;;;;15.10;10.55;;;;;;;20.26;82.86;100265.63;4997640;28;20034;-72
2021/09/28 03:54:28;;;;;;;16.23;9.40;;;;;;;20.27;82.29;100268.00;4997925;28;20041;-72
2021/09/28 03:56:56;;;;;;;12.35;8.48;;;;;;;20.23;82.39;100283.41;4998496;28;20033;-72
2021/09/28 03:59:24;;;;;;;12.40;8.88;;;;;;;20.23;82.59;100275.72;4998190;28;20034;-72
2021/09/28 04:01:51;;;;;;;12.48;8.23;;;;;;;20.32;81.16;100281.66;4998390;28;20393;-72
2021/09/28 04:04:16;;;;;;;13.02;8.32;;;;;;;20.29;80.84;100276.84;4997664;28;20038;-72
2021/09/28 04:06:42;;;;;;;11.35;8.05;;;;;;;20.23;81.82;100281.38;4997816;28;20026;-72
2021/09/28 04:09:10;;;;;;;8.35;6.93;;;;;;;20.21;82.07;100288.69;4997777;28;20034;-72
2021/09/28 04:11:38;;;;;;;14.65;8.18;;;;;;;20.24;81.59;100285.81;4997622;28;20073;-72
2021/09/28 04:14:04;;;;;;;11.52;8.18;;;;;;;20.31;81.26;100284.91;5015431;28;20037;-72
2021/09/28 04:16:30;;;;;;;8.27;7.38;;;;;;;20.26;81.40;100288.22;4997608;28;20025;-72
2021/09/28 04:18:59;;;;;;;10.63;7.55;;;;;;;20.23;81.56;100284.19;5014838;28;20108;-72
2021/09/28 04:21:29;;;;;;;12.43;7.85;;;;;;;20.24;81.89;100288.66;4997997;28;20165;-72
2021/09/28 04:23:54;;;;;;;13.05;7.93;;;;;;;20.21;81.14;100285.88;4997327;28;20030;-72
2021/09/28 04:26:20;;;;;;;8.10;6.97;;;;;;;20.20;81.04;100284.28;4997879;28;20030;-71
2021/09/28 04:28:46;;;;;;;9.35;7.25;;;;;;;20.23;80.59;100287.03;4997297;28;20461;-71
2021/09/28 04:31:14;;;;;;;14.43;8.27;;;;;;;20.27;80.80;100284.16;4997264;28;20030;-72
2021/09/28 04:33:40;;;;;;;10.68;7.90;;;;;;;20.27;80.54;100289.81;4996612;28;20044;-71
2021/09/28 04:36:05;;;;;;;8.75;7.50;;;;;;;20.24;81.11;100294.31;4980935;28;20034;-71
2021/09/28 04:38:31;;;;;;;13.65;8.13;;;;;;;20.22;80.81;100293.91;4997070;28;20071;-72
2021/09/28 04:40:58;;;;;;;11.57;7.10;;;;;;;20.17;81.24;100285.91;4996904;28;20033;-71
2021/09/28 04:43:26;;;;;;;10.07;7.22;;;;;;;20.14;81.37;100290.41;4997142;28;20030;-71
2021/09/28 04:45:52;;;;;;;9.43;7.35;;;;;;;20.19;81.66;100293.97;4997176;28;20068;-72
2021/09/28 04:48:20;;;;;;;11.30;7.57;;;;;;;20.23;80.70;100284.19;5013262;28;20450;-72
2021/09/28 04:50:52;;;;;;;8.75;7.32;;;;;;;20.29;79.96;100288.16;4997056;28;20550;-71
2021/09/28 04:53:19;;;;;;;11.95;7.20;;;;;;;20.26;79.89;100297.50;4996786;28;20034;-71
2021/09/28 04:55:44;;;;;;;13.25;7.88;;;;;;;20.17;80.44;100297.22;5014966;28;20034;-71
2021/09/28 04:58:10;;;;;;;8.70;7.13;;;;;;;20.13;80.77;100299.28;4997101;28;20124;-72
2021/09/28 05:00:37;;;;;;;9.02;6.65;;;;;;;20.14;80.97;100300.91;4996979;28;20057;-71
2021/09/28 05:03:03;;;;;;;12.75;7.10;;;;;;;20.12;80.05;100300.50;4996627;28;20030;-72
2021/09/28 05:05:32;;;;;;;11.65;6.93;;;;;;;20.14;79.76;100298.09;4995773;28;20029;-72
2021/09/28 05:07:57;;;;;;;6.90;5.57;;;;;;;20.17;80.61;100311.34;4996370;28;20037;-71
2021/09/28 05:10:25;;;;;;;10.18;6.15;;;;;;;20.21;80.34;100305.66;4996472;28;20034;-71
2021/09/28 05:12:51;;;;;;;8.35;6.38;;;;;;;20.31;80.15;100311.13;4996320;28;20045;-72
2021/09/28 05:15:19;;;;;;;9.68;6.50;;;;;;;20.51;78.95;100304.81;4996487;28;20033;-71
2021/09/28 05:17:47;;;;;;;10.13;6.22;;;;;;;20.72;77.75;100310.13;4996429;28;20049;-71
2021/09/28 05:20:13;;;;;;;30.17;24.40;;;;;;;20.90;76.63;100313.44;4996421;28;20037;-72
2021/09/28 05:22:41;;;;;;;65.97;49.72;;;;;;;21.09;75.18;100316.75;4996291;28;20033;-71
2021/09/28 05:25:11;;;;;;;47.75;32.78;;;;;;;21.24;74.35;100306.78;4996412;28;20029;-72
2021/09/28 05:27:39;;;;;;;31.45;21.15;;;;;;;21.29;73.83;100280.81;4980599;28;20037;-72
2021/09/28 05:30:06;;;;;;;19.08;14.95;;;;;;;21.50;73.38;100324.09;5013689;28;20036;-72
2021/09/28 05:32:31;;;;;;;16.85;13.32;;;;;;;21.71;72.56;100312.34;5013753;28;20033;-72
2021/09/28 05:35:00;;;;;;;15.80;8.88;;;;;;;21.96;70.93;100321.13;5013796;28;20108;-72
2021/09/28 05:37:28;;;;;;;10.68;8.45;;;;;;;22.27;69.37;100325.75;4996172;28;20057;-72
2021/09/28 05:39:59;;;;;;;12.20;8.73;;;;;;;22.41;68.78;100316.91;4996543;28;20467;-72
2021/09/28 05:42:25;;;;;;;9.52;6.70;;;;;;;22.39;67.92;100322.22;4996050;28;20480;-72
2021/09/28 05:44:51;;;;;;;9.25;6.45;;;;;;;22.84;67.49;100325.16;4996011;28;20040;-71
2021/09/28 05:47:16;;;;;;;7.53;5.75;;;;;;;23.30;65.87;100333.75;4995772;28;20034;-72
2021/09/28 05:49:42;;;;;;;10.85;5.55;;;;;;;23.77;64.70;100329.19;4995671;28;20538;-72
2021/09/28 05:52:11;;;;;;;6.88;5.85;;;;;;;24.30;62.73;100334.53;4995837;28;20057;-72
2021/09/28 05:54:47;;;;;;;7.25;5.88;;;;;;;24.75;61.13;100327.81;4995811;28;20037;-71
2021/09/28 05:57:19;;;;;;;11.38;6.75;;;;;;;24.97;59.18;100327.91;5013599;28;20030;-72
2021/09/28 05:59:45;;;;;;;7.35;6.10;;;;;;;25.31;59.33;100333.66;5013212;28;20453;-72
2021/09/28 06:02:13;;;;;;;8.82;4.55;;;;;;;25.70;57.63;100336.34;4995579;28;20037;-72
2021/09/28 06:04:39;;;;;;;8.90;5.22;;;;;;;26.21;55.87;100334.03;4996016;28;20213;-72
2021/09/28 06:07:07;;;;;;;9.30;5.40;;;;;;;26.70;55.27;100339.00;4995021;28;20033;-72
2021/09/28 06:09:38;;;;;;;8.15;4.45;;;;;;;27.22;53.88;100330.72;4995142;28;20029;-72
2021/09/28 06:12:05;;;;;;;9.23;5.22;;;;;;;27.56;52.64;100339.00;4979617;28;20033;-72
2021/09/28 06:14:31;;;;;;;6.88;4.30;;;;;;;27.85;51.77;100344.25;4995871;28;20125;-72
2021/09/28 06:16:59;;;;;;;6.78;4.47;;;;;;;28.13;51.40;100341.34;4998882;28;20120;-72
2021/09/28 06:19:26;;;;;;;8.02;4.80;;;;;;;28.12;50.82;100346.25;4999887;28;20034;-72
2021/09/28 06:21:52;;;;;;;12.40;4.93;;;;;;;28.69;49.37;100349.25;4999168;28;20029;-70
2021/09/28 06:24:20;;;;;;;14.25;5.50;;;;;;;28.79;49.32;100349.22;5016608;28;20034;-70
2021/09/28 06:26:47;;;;;;;21.98;5.35;;;;;;;29.33;48.11;100350.19;4999034;28;20071;-72
2021/09/28 06:29:13;;;;;;;8.52;5.18;;;;;;;29.51;47.06;100350.06;4999094;28;20088;-72
2021/09/28 06:31:39;;;;;;;8.32;5.05;;;;;;;29.75;46.32;100353.69;4999178;28;20068;-72
2021/09/28 06:34:06;;;;;;;9.43;4.85;;;;;;;30.09;44.70;100354.28;4998307;28;20111;-72
2021/09/28 06:36:31;;;;;;;10.68;4.80;;;;;;;29.99;45.43;100364.31;4998681;28;20030;-70
2021/09/28 06:39:02;;;;;;;6.07;3.97;;;;;;;29.86;45.39;100358.06;4998778;28;20077;-73
2021/09/28 06:41:28;;;;;;;8.80;5.00;;;;;;;29.65;45.26;100360.00;4999044;28;20469;-72
2021/09/28 06:43:54;;;;;;;7.13;3.72;;;;;;;29.98;44.76;100365.56;5016339;28;20087;-72
2021/09/28 06:46:20;;;;;;;7.60;4.57;;;;;;;30.42;44.29;100376.31;4999429;28;20022;-72
2021/09/28 06:48:46;;;;;;;9.05;4.68;;;;;;;30.25;43.47;100379.66;4998777;28;20060;-70
2021/09/28 06:51:18;;;;;;;7.55;4.22;;;;;;;30.64;42.89;100373.81;4998657;28;20120;-71
2021/09/28 06:53:47;;;;;;;7.13;4.03;;;;;;;30.62;43.30;100373.50;4998141;28;20030;-71
2021/09/28 06:56:13;;;;;;;7.30;3.72;;;;;;;30.44;43.46;100377.38;4998507;28;20034;-71
2021/09/28 06:58:39;;;;;;;7.07;3.97;;;;;;;30.70;42.33;100386.19;4998913;28;20041;-72
2021/09/28 07:01:04;;;;;;;6.50;3.83;;;;;;;30.92;42.08;100379.22;4982514;28;20030;-72
2021/09/28 07:03:33;;;;;;;6.70;3.90;;;;;;;30.72;42.63;100385.69;4998864;28;20469;-70
2021/09/28 07:06:01;;;;;;;6.53;3.47;;;;;;;31.11;42.11;100389.16;4999049;28;20025;-71
2021/09/28 07:08:26;;;;;;;9.80;3.92;;;;;;;31.50;41.08;100395.47;4999015;28;20092;-71
2021/09/28 07:10:52;;;;;;;4.78;3.75;;;;;;;30.68;41.19;100385.06;4998506;28;20030;-72
2021/09/28 07:13:18;;;;;;;6.38;3.38;;;;;;;30.82;41.46;100392.09;4998868;28;20034;-70
2021/09/28 07:15:43;;;;;;;6.28;3.95;;;;;;;30.97;41.85;100387.13;4998775;28;20113;-70
2021/09/28 07:18:09;;;;;;;6.47;3.85;;;;;;;31.53;40.14;100394.47;4998298;28;20522;-71
2021/09/28 07:20:37;;;;;;;4.97;4.07;;;;;;;30.40;42.12;100387.47;5014672;28;20064;-72
2021/09/28 07:23:03;;;;;;;5.00;3.47;;;;;;;31.22;41.01;100397.94;4998390;28;20542;-72
2021/09/28 07:25:29;;;;;;;6.95;3.95;;;;;;;31.79;39.27;100399.44;4998415;28;20026;-72
2021/09/28 07:27:58;;;;;;;6.43;3.63;;;;;;;31.99;39.28;100392.91;4997408;28;20393;-72
2021/09/28 07:30:25;;;;;;;5.85;3.92;;;;;;;32.38;38.17;100399.06;4998380;28;20069;-73
2021/09/28 07:32:51;;;;;;;6.72;3.95;;;;;;;31.98;39.53;100397.88;4982271;28;20038;-70
2021/09/28 07:35:17;;;;;;;6.57;4.13;;;;;;;32.44;38.07;100391.28;4998038;28;20147;-72
2021/09/28 07:37:42;;;;;;;6.32;3.95;;;;;;;32.48;38.01;100402.56;4998125;28;20472;-71
2021/09/28 07:40:08;;;;;;;3.95;3.40;;;;;;;32.46;38.06;100397.31;5015681;28;20105;-71
2021/09/28 07:42:38;;;;;;;6.90;4.03;;;;;;;33.02;37.10;100402.75;4997887;28;20108;-71
2021/09/28 07:45:06;;;;;;;6.97;3.88;;;;;;;32.81;36.66;100399.97;5015719;28;20316;-73
2021/09/28 07:47:34;;;;;;;4.32;3.50;;;;;;;31.67;38.36;100407.16;4997826;28;20034;-72
2021/09/28 07:50:00;;;;;;;7.43;4.32;;;;;;;30.90;39.63;100405.56;5015801;28;20034;-70
2021/09/28 07:52:27;;;;;;;4.47;3.30;;;;;;;31.34;39.39;100404.66;4998469;28;20041;-72
2021/09/28 07:54:52;;;;;;;4.50;4.07;;;;;;;31.10;39.52;100407.66;4997704;28;20036;-72
2021/09/28 07:57:24;;;;;;;5.85;4.90;;;;;;;31.67;39.61;100404.28;4997625;28;20022;-71
2021/09/28 07:59:53;;;;;;;8.88;4.63;;;;;;;31.60;40.74;100413.38;4997781;28;20122;-70
2021/09/28 08:02:20;;;;;;;6.10;4.60;;;;;;;31.78;41.13;100404.41;4998204;28;20469;-71
2021/09/28 08:04:48;;;;;;;7.65;4.22;;;;;;;31.56;40.88;100399.19;4997504;28;20080;-71
2021/09/28 08:07:17;;;;;;;8.18;4.35;;;;;;;31.54;41.05;100409.63;4997550;28;20057;-72
2021/09/28 08:09:46;;;;;;;5.65;4.38;;;;;;;31.28;41.04;100412.41;4997532;28;20037;-73
2021/09/28 08:12:11;;;;;;;9.52;4.53;;;;;;;32.13;39.49;100405.63;4998041;28;20542;-73
2021/09/28 08:14:37;;;;;;;7.72;4.50;;;;;;;32.42;38.70;100404.59;4997655;28;20035;-72
2021/09/28 08:17:03;;;;;;;7.60;4.72;;;;;;;32.91;37.38;100405.56;5015283;28;20029;-71
2021/09/28 08:19:29;;;;;;;5.03;3.33;;;;;;;32.93;35.98;100408.72;4997427;28;20034;-72
2021/09/28 08:21:55;;;;;;;5.70;3.63;;;;;;;32.91;35.73;100408.44;4997064;28;20030;-73
2021/09/28 08:24:21;;;;;;;3.88;3.55;;;;;;;31.79;36.28;100411.75;4996955;28;20117;-71
2021/09/28 08:29:31;;;;;;;7.72;3.85;;;;;;;32.37;36.04;100399.59;5015456;28;20045;-71
2021/09/28 08:31:56;;;;;;;6.10;3.75;;;;;;;31.91;35.51;100400.44;4997374;28;20453;-72
2021/09/28 08:34:22;;;;;;;6.95;4.28;;;;;;;31.71;36.60;100398.31;5014058;28;20065;-71
2021/09/28 08:36:50;;;;;;;6.65;4.00;;;;;;;32.21;36.07;100400.97;4996820;28;20037;-74
2021/09/28 08:39:18;;;;;;;4.93;4.43;;;;;;;32.42;35.53;100393.88;4997265;28;20038;-71
2021/09/28 08:41:46;;;;;;;6.18;3.88;;;;;;;32.40;35.03;100401.47;4996774;28;20038;-72
2021/09/28 08:44:16;;;;;;;8.38;4.30;;;;;;;32.23;34.07;100401.28;4980827;28;20571;-71
2021/09/28 08:46:46;;;;;;;12.02;4.85;;;;;;;32.73;34.09;100395.97;4997445;28;20056;-71
2021/09/28 08:49:14;;;;;;;7.25;4.45;;;;;;;33.22;32.78;100402.59;4997087;28;20037;-71
2021/09/28 08:51:40;;;;;;;9.02;4.93;;;;;;;32.99;32.88;100389.38;4996788;28;20030;-70
2021/09/28 08:54:07;;;;;;;7.05;4.07;;;;;;;33.34;33.36;100391.91;5013947;28;20488;-71
2021/09/28 08:56:32;;;;;;;10.55;4.45;;;;;;;32.95;33.98;100394.56;4996718;28;20036;-71
2021/09/28 08:59:07;;;;;;;12.40;4.78;;;;;;;33.00;33.57;100390.94;4996335;28;20384;-70
2021/09/28 09:01:35;;;;;;;8.38;5.18;;;;;;;32.96;33.77;100394.06;5014638;28;20045;-72
2021/09/28 09:04:20;;;;;;;8.05;4.55;;;;;;;32.64;34.12;100386.72;4996722;28;20030;-71
2021/09/28 09:06:46;;;;;;;6.57;4.35;;;;;;;33.53;32.75;100387.31;4980529;28;20514;-72
2021/09/28 09:09:16;;;;;;;6.80;4.63;;;;;;;33.66;32.18;100383.94;5013833;28;20405;-72
2021/09/28 09:11:44;;;;;;;8.90;5.00;;;;;;;33.39;32.80;100379.63;4996676;28;20029;-72
2021/09/28 09:14:21;;;;;;;9.23;4.68;;;;;;;32.66;33.86;100381.25;4996158;28;20029;-72
2021/09/28 09:16:51;;;;;;;12.25;5.28;;;;;;;32.70;33.37;100361.63;4995701;28;20034;-72
2021/09/28 09:19:24;;;;;;;8.95;4.20;;;;;;;32.15;34.11;100375.03;4995856;28;20488;-72
2021/09/28 09:21:51;;;;;;;6.15;5.03;;;;;;;32.68;34.02;100376.56;4996174;28;20053;-72
2021/09/28 09:24:49;;;;;;;12.63;5.88;;;;;;;32.43;34.14;100368.75;4995935;28;20030;-72
2021/09/28 09:27:19;;;;;;;8.82;6.35;;;;;;;31.92;35.26;100376.09;4996478;28;20532;-71
2021/09/28 09:30:15;;;;;;;5.80;4.95;;;;;;;32.59;33.90;100373.84;4996002;28;20052;-71
2021/09/28 09:32:51;;;;;;;8.75;6.03;;;;;;;32.94;33.09;100369.94;4995650;28;20033;-73
2021/09/28 09:35:33;;;;;;;7.05;5.38;;;;;;;33.30;32.99;100368.31;5012963;28;20053;-72
2021/09/28 09:38:18;;;;;;;8.00;5.37;;;;;;;33.97;31.75;100362.03;4995830;28;20388;-72
2021/09/28 09:40:48;;;;;;;6.00;5.35;;;;;;;34.24;31.40;100369.94;4995795;28;20273;-72
2021/09/28 09:43:29;;;;;;;8.70;5.65;;;;;;;34.57;30.54;100371.28;4995436;28;20026;-73
2021/09/28 09:46:19;;;;;;;7.82;5.15;;;;;;;34.82;30.04;100370.19;4995680;28;20026;-72
2021/09/28 09:48:48;;;;;;;8.05;5.20;;;;;;;33.94;32.12;100365.97;4995665;28;20148;-72
2021/09/28 09:51:16;;;;;;;7.47;5.20;;;;;;;34.56;30.81;100369.72;5017161;28;20053;-72
2021/09/28 09:53:54;;;;;;;7.47;5.15;;;;;;;34.70;30.63;100365.75;5002188;28;20084;-72
2021/09/28 09:56:20;;;;;;;6.88;5.32;;;;;;;32.44;33.04;100367.44;5002488;28;20034;-72
2021/09/28 09:58:47;;;;;;;7.63;5.50;;;;;;;33.10;32.25;100355.63;5002909;28;20061;-71
2021/09/28 10:01:12;;;;;;;11.27;6.03;;;;;;;33.62;31.16;100351.69;5002526;28;20108;-72
2021/09/28 10:03:41;;;;;;;12.93;6.55;;;;;;;32.81;32.49;100362.53;5002095;28;20452;-72
2021/09/28 10:06:07;;;;;;;7.55;6.10;;;;;;;32.53;33.20;100347.09;5002529;28;20054;-71
2021/09/28 10:08:44;;;;;;;8.85;6.30;;;;;;;30.78;36.26;100364.38;4986096;28;20120;-71
2021/09/28 10:11:12;;;;;;;8.32;5.97;;;;;;;30.67;35.96;100352.69;4986916;28;20427;-72
2021/09/28 10:13:44;;;;;;;8.80;6.68;;;;;;;31.17;34.86;100349.78;5002401;28;20461;-72
2021/09/28 10:16:44;;;;;;;8.25;6.00;;;;;;;31.47;34.12;100349.66;5002592;28;20026;-71
2021/09/28 10:19:28;;;;;;;8.00;7.20;;;;;;;31.49;34.68;100353.63;4970773;28;20088;-72
2021/09/28 10:21:59;;;;;;;7.68;6.15;;;;;;;30.31;36.87;100335.91;5020131;28;20117;-72
2021/09/28 10:24:34;;;;;;;7.47;6.43;;;;;;;30.10;36.96;100335.81;5002170;28;20033;-72
2021/09/28 10:26:59;;;;;;;9.88;6.88;;;;;;;30.13;37.33;100320.50;5001960;28;20113;-72
2021/09/28 10:29:37;;;;;;;9.82;6.70;;;;;;;30.71;36.55;100346.78;5002572;28;20125;-71
2021/09/28 10:32:21;;;;;;;14.25;7.18;;;;;;;30.47;36.26;100329.69;5001921;28;20121;-72
2021/09/28 10:35:05;;;;;;;9.05;5.85;;;;;;;30.78;35.50;100335.66;5001983;28;20088;-72
2021/09/28 10:37:42;;;;;;;11.82;6.03;;;;;;;32.00;34.04;100340.59;5019963;28;20473;-72
2021/09/28 10:40:14;;;;;;;10.18;6.03;;;;;;;31.46;34.64;100334.50;5002623;28;20061;-72
2021/09/28 10:42:59;;;;;;;9.23;6.13;;;;;;;31.54;34.24;100332.00;5002640;28;20022;-72
2021/09/28 10:45:31;;;;;;;8.43;6.22;;;;;;;31.44;34.25;100333.44;5002035;28;20033;-72
2021/09/28 10:48:06;;;;;;;11.75;5.78;;;;;;;31.17;35.41;100326.03;5002256;28;20022;-72
2021/09/28 10:50:34;;;;;;;8.68;5.38;;;;;;;30.25;36.60;100328.00;5019951;28;20109;-72
2021/09/28 10:53:04;;;;;;;8.57;6.13;;;;;;;30.30;36.54;100329.38;5020203;28;20057;-72
2021/09/28 10:55:39;;;;;;;7.00;5.50;;;;;;;30.04;36.55;100325.50;5001957;28;20065;-72
2021/09/28 10:58:14;;;;;;;8.13;6.10;;;;;;;30.01;37.29;100333.03;5002289;28;20131;-72
2021/09/28 11:00:48;;;;;;;9.52;5.85;;;;;;;30.21;36.53;100304.47;5001890;28;20091;-73
2021/09/28 11:03:40;;;;;;;8.65;6.05;;;;;;;31.01;35.74;100324.50;5015907;28;20056;-72
2021/09/28 11:06:07;;;;;;;7.72;6.07;;;;;;;30.24;35.98;100323.56;4998571;28;20026;-71
2021/09/28 11:08:37;;;;;;;8.43;6.50;;;;;;;31.10;35.03;100312.06;5015957;28;20148;-71
2021/09/28 11:11:05;;;;;;;6.20;5.57;;;;;;;31.47;34.57;100315.16;4998313;28;20041;-72
2021/09/28 11:13:34;;;;;;;12.68;6.07;;;;;;;31.00;35.60;100317.16;5014917;28;20122;-72
2021/09/28 11:16:02;;;;;;;10.40;7.00;;;;;;;30.86;35.61;100318.03;4998453;28;20049;-72
2021/09/28 11:18:28;;;;;;;9.27;6.88;;;;;;;30.84;35.78;100311.97;5016040;28;20484;-72
2021/09/28 11:21:13;;;;;;;10.90;6.70;;;;;;;30.44;36.67;100313.44;5015979;28;20033;-71
2021/09/28 11:23:40;;;;;;;7.57;6.38;;;;;;;30.52;36.46;100317.47;4998424;28;20030;-71
2021/09/28 11:26:09;;;;;;;8.20;5.85;;;;;;;30.88;35.86;100310.47;4998395;28;20037;-72
2021/09/28 11:28:35;;;;;;;9.65;5.68;;;;;;;31.78;34.47;100309.50;4998301;28;20476;-72